Home > Products > Valid Products > TAF

000
FTUS45 KMSO 220724 AAA
TAFSMN
TAF AMD
KSMN 220724Z 2207/2306 16005KT P6SM VCSH OVC070
     FM221000 17007KT 6SM -FZRA BR OVC040
     FM221300 18003KT 5SM -SHSN OVC030
     FM221700 21011G18KT 3SM -SN OVC035
     FM222100 33010KT P6SM VCSH BKN060
      AMD LTD TO CLD VIS AND WIND=



000
FTUS45 KMSO 220707 AAA
TAFBTM
TAF AMD
KBTM 220707Z 2207/2306 17012KT P6SM VCSH BKN030 OVC040
     FM220900 18013KT 3SM -SN OVC030
     FM221200 24009KT P6SM VCSH OVC035
     FM221800 29015G30KT 3SM -SN OVC030
     FM230000 30012G20KT P6SM VCSH OVC060=



000
FTUS45 KMSO 220539
TAFGPI
TAF
KGPI 220539Z 2206/2306 VRB03KT 2SM -FZRA BR SCT020 OVC040
     FM220800 VRB05KT 3SM -SN BR SCT010 OVC025
     FM221700 24011G25KT 6SM -SHSN BKN040
     FM222300 25009KT 4SM BR OVC040=



000
FTUS45 KMSO 220539
TAFMSO
TAF
KMSO 220539Z 2206/2306 00000KT 5SM -FZRA BR SCT030 OVC060
     FM221000 24006KT 5SM BR VCSH OVC040
     FM221700 27015G30KT 4SM -SHSN OVC030
     FM222300 28010KT 5SM -SHSN OVC040=



000
FTUS45 KMSO 220539
TAFBTM
TAF
KBTM 220539Z 2206/2306 15011KT P6SM VCSH SCT030 BKN050
     FM220700 18013KT 2SM -SN OVC030
     FM221200 24009KT P6SM VCSH OVC035
     FM221800 29015G30KT 3SM -SN OVC030
     FM230000 30012G20KT P6SM VCSH OVC060=



000
FTUS45 KMSO 220539
TAFSMN
TAF
KSMN 220539Z 2206/2306 00000KT P6SM BKN040 BKN060
     FM220700 19007KT 5SM -SN OVC025
     FM221700 27011G18KT 3SM -SN BKN035
     FM222100 32010KT P6SM VCSH BKN060
      AMD LTD TO CLD VIS AND WIND=



000
FTUS45 KMSO 220357 AAA
TAFBTM
TAF AMD
KBTM 220357Z 2204/2224 17012KT P6SM BKN050
     FM220800 18013KT 2SM -SN OVC030
     FM221200 24009KT P6SM VCSH OVC035
     FM221800 29012G22KT 3SM -SN OVC030=



000
FTUS45 KMSO 220357 AAA
TAFBTM
TAF AMD
KBTM 220357Z 2204/2224 17012KT P6SM BKN050
     FM220800 18013KT 2SM -SN OVC030
     FM221200 24009KT P6SM VCSH OVC035
     FM221800 29012G22KT 3SM -SN OVC030=



000
FTUS45 KMSO 220323 AAB
TAFMSO
TAF AMD
KMSO 220323Z 2203/2224 00000KT 6SM HZ BKN060
     FM220600 VRB05KT 4SM -SN OVC030
     FM221500 22005KT 5SM BR VCSH OVC040
     FM221800 27012G22KT 3SM -SN OVC030=



000
FTUS45 KMSO 220323 AAA
TAFGPI
TAF AMD
KGPI 220323Z 2203/2224 VRB03KT 5SM BR OVC040
     FM220600 VRB05KT 3SM -SN BR BKN007 OVC010
     FM221400 00000KT 4SM BR OVC010
     FM221800 24010G18KT 3SM -SN OVC025=



000
FTUS45 KMSO 220206 AAB
TAFSMN
TAF AMD
KSMN 220206Z 2202/2224 00000KT P6SM BKN060
     FM220500 19007KT 5SM -SN OVC025
     FM221700 27011G18KT 3SM -SN BKN035
      AMD LTD TO CLD VIS AND WIND=



000
FTUS45 KMSO 212337 AAA
TAFSMN
TAF AMD
KSMN 212337Z 2200/2224 00000KT P6SM BKN060
     FM220300 19007KT 5SM -SN OVC025
     FM221700 27011G18KT 3SM -SN BKN035
      AMD LTD TO CLD VIS AND WIND=



000
FTUS45 KMSO 212320
TAFGPI
TAF
KGPI 212320Z 2200/2224 VRB03KT 4SM BR OVC040
     FM220300 VRB05KT 3SM -SN BR BKN007 OVC010
     FM221400 00000KT 4SM BR OVC010
     FM221800 24010G18KT 3SM -SN OVC025=



000
FTUS45 KMSO 212320
TAFBTM
TAF
KBTM 212320Z 2200/2224 VRB03KT P6SM BKN050
     FM220600 18010KT 2SM -SN OVC030
     FM221200 24009KT P6SM VCSH OVC035
     FM221800 29012G22KT 3SM -SN OVC030=



000
FTUS45 KMSO 212320
TAFSMN
TAF
KSMN 212320Z 2200/2224 00000KT P6SM BKN060
     FM220000 19007KT 5SM -SN OVC025
     FM221700 27011G18KT 3SM -SN BKN035
      AMD LTD TO CLD VIS AND WIND=



000
FTUS45 KMSO 212320
TAFMSO
TAF
KMSO 212320Z 2200/2224 00000KT 6SM HZ BKN060
     FM220400 VRB05KT 4SM -SN OVC030
     FM221500 22005KT 5SM BR VCSH OVC040
     FM221800 27012G22KT 3SM -SN OVC030=



000
FTUS45 KMSO 212155 AAA
TAFSMN
TAF AMD
KSMN 212155Z 2122/2218 00000KT P6SM BKN060
     FM220000 19007KT 5SM -SN OVC025
     FM221700 27011G18KT 3SM -SN BKN035
      AMD LTD TO CLD VIS AND WIND=



000
FTUS45 KMSO 211740
TAFBTM
TAF
KBTM 211740Z 2118/2218 21006KT P6SM BKN060
     FM220600 18010KT 2SM -SN OVC030
     FM221200 24009KT P6SM VCSH OVC035=



000
FTUS45 KMSO 211740
TAFGPI
TAF
KGPI 211740Z 2118/2218 VRB03KT 3SM BR BKN050 OVC080
     FM212100 18005KT 5SM BR OVC060
     FM220100 VRB05KT 3SM -SN BR BKN007 OVC010
     FM221400 00000KT 4SM BR OVC010=



000
FTUS45 KMSO 211740
TAFSMN
TAF
KSMN 211740Z 2118/2218 00000KT P6SM BKN060
     FM220000 19007KT 5SM -SN OVC025
     FM221700 27011G18KT 3SM -SN BLSN BKN035
      AMD LTD TO CLD VIS AND WIND=



000
FTUS45 KMSO 211740
TAFMSO
TAF
KMSO 211740Z 2118/2218 VRB03KT 6SM BR BKN060
     FM220400 VRB05KT 4SM -SN OVC030
     FM221500 22005KT 5SM BR VCSH OVC040=



000
FTUS45 KMSO 211443 AAA
TAFSMN
TAF AMD
KSMN 211443Z 2115/2212 00000KT P6SM FEW040
     FM220400 19006KT 5SM -SHSN FEW005 SCT015 OVC025
      AMD LTD TO CLD VIS AND WIND=



000
FTUS45 KMSO 211442 AAA
TAFMSO
TAF AMD
KMSO 211442Z 2115/2212 00000KT P6SM VCSH BKN040
     FM211800 VRB03KT P6SM BKN060=



000
FTUS45 KMSO 211136
TAFBTM
TAF
KBTM 211136Z 2112/2212 26006KT P6SM BKN060
     FM220600 18010KT 5SM -SHSN OVC015=



000
FTUS45 KMSO 211136
TAFSMN
TAF
KSMN 211136Z 2112/2212 00000KT P6SM FEW040
      TEMPO 2113/2117 5SM BR
     FM220400 19006KT 5SM -SHSN FEW005 SCT015 OVC025
      AMD LTD TO CLD VIS AND WIND=



000
FTUS45 KMSO 211136
TAFMSO
TAF
KMSO 211136Z 2112/2212 00000KT P6SM VCSH SCT003 BKN040
      TEMPO 2113/2117 3SM BR
     FM211800 VRB03KT P6SM BKN060=



000
FTUS45 KMSO 211136
TAFGPI
TAF
KGPI 211136Z 2112/2212 VRB03KT 3SM BR VCSH BKN007 OVC030
     FM211800 18005KT 5SM BR SCT007 OVC060
     FM220300 16009KT 4SM -SN BR BKN007 OVC010=



000
FTUS45 KMSO 210549
TAFMSO
TAF
KMSO 210549Z 2106/2206 00000KT P6SM VCSH BKN050 OVC090
     FM210900 00000KT 3SM BR SCT003 BKN030
     FM211500 00000KT 6SM BR OVC050=



000
FTUS45 KMSO 210549
TAFSMN
TAF
KSMN 210549Z 2106/2206 VRB03KT P6SM OVC070
     FM210900 00000KT 4SM BR OVC050
     FM211500 00000KT P6SM OVC050
      AMD LTD TO CLD VIS AND WIND=



000
FTUS45 KMSO 210549
TAFBTM
TAF
KBTM 210549Z 2106/2206 26006KT P6SM BKN060=



000
FTUS45 KMSO 210549
TAFGPI
TAF
KGPI 210549Z 2106/2206 00000KT 4SM -SN BR OVC007
     FM211200 VRB03KT 1SM BR BKN007 OVC015
     FM211800 18005KT 5SM BR BKN015 OVC050=



000
FTUS45 KMSO 210357 AAB
TAFGPI
TAF AMD
KGPI 210357Z 2104/2124 00000KT 4SM -SN BR OVC006
     FM211200 VRB03KT 2SM BR BKN006 OVC015=



000
FTUS45 KMSO 210200 AAA
TAFBTM
TAF AMD
KBTM 210200Z 2102/2124 26006KT P6SM VCSH OVC060
     FM210600 VRB03KT P6SM BKN050=



000
FTUS45 KMSO 210151 AAA
TAFGPI
TAF AMD
KGPI 210151Z 2102/2124 00000KT 3SM -FZDZSN BR BKN006
      TEMPO 2102/2104 1SM BR OVC006
     FM210400 VRB03KT 4SM -FZDZSN BR OVC020=



000
FTUS45 KMSO 202320
TAFBTM
TAF
KBTM 202320Z 2100/2124 26006KT P6SM VCSH BKN030 OVC060
     FM210600 VRB03KT P6SM BKN050=



000
FTUS45 KMSO 202320
TAFSMN
TAF
KSMN 202320Z 2100/2124 VRB03KT P6SM BKN060
     FM210600 00000KT 4SM BR SCT100
      AMD LTD TO CLD VIS AND WIND=



000
FTUS45 KMSO 202320
TAFMSO
TAF
KMSO 202320Z 2100/2124 00000KT P6SM VCSH BKN050 OVC090
     FM210500 00000KT 3SM BR SCT003 BKN030=



000
FTUS45 KMSO 202320
TAFGPI
TAF
KGPI 202320Z 2100/2124 00000KT 1SM -FZDZSN BR BKN002 OVC010
      TEMPO 2100/2103 1/4SM FZFG VV002
     FM210300 VRB03KT 1SM -FZDZSN BR OVC020=



000
FTUS45 KMSO 202217 AAA
TAFGPI
TAF AMD
KGPI 202217Z 2022/2118 00000KT 1/4SM FZFG BKN002 OVC010
     FM202315 00000KT 1SM BR OVC010
     FM210000 17004KT 2SM -SNRA BR OVC020
     FM210300 16003KT 3/4SM -FZDZ BR OVC010=



000
FTUS45 KMSO 202217 AAB
TAFMSO
TAF AMD
KMSO 202217Z 2022/2118 00000KT P6SM OVC090
     FM210000 VRB03KT P6SM -FZDZSNRA OVC040
     FM210100 00000KT P6SM OVC050
     FM210500 00000KT 3SM BR SCT003 BKN040=



000
FTUS45 KMSO 201737
TAFGPI
TAF
KGPI 201737Z 2018/2118 00000KT 1SM BR OVC010
     FM202200 17004KT 2SM -SNRA BR OVC020
     FM210300 16003KT 3/4SM -FZDZ BR OVC010=



000
FTUS45 KMSO 201737
TAFSMN
TAF
KSMN 201737Z 2018/2118 VRB03KT P6SM BKN070
     FM202100 VRB03KT P6SM VCSH BKN035 OVC050
     FM210600 00000KT 4SM BR SCT100
      AMD LTD TO CLD VIS AND WIND=



000
FTUS45 KMSO 201737
TAFMSO
TAF
KMSO 201737Z 2018/2118 00000KT P6SM OVC090
     FM202000 VRB03KT P6SM -FZDZSNRA OVC040
     FM210100 00000KT P6SM OVC050
     FM210500 00000KT 3SM BR SCT003 BKN040=



000
FTUS45 KMSO 201737
TAFBTM
TAF
KBTM 201737Z 2018/2118 VRB05KT P6SM BKN090
     FM202200 28005KT P6SM VCSH OVC040
     FM210300 VRB03KT P6SM SCT080=



000
FTUS45 KMSO 201636 AAA
TAFGPI
TAF AMD
KGPI 201636Z 2017/2112 00000KT 1/2SM FZFG OVC003
     FM201800 00000KT 3SM -SNRA BR OVC010=



000
FTUS45 KMSO 201120
TAFBTM
TAF
KBTM 201120Z 2012/2112 VRB05KT P6SM SCT070
     FM202300 25006KT P6SM OVC035=



000
FTUS45 KMSO 201120
TAFSMN
TAF
KSMN 201120Z 2012/2112 VRB03KT P6SM BKN120
     FM202100 VRB03KT P6SM VCSH BKN035 OVC050
      AMD LTD TO CLD VIS AND WIND=



000
FTUS45 KMSO 201120
TAFMSO
TAF
KMSO 201120Z 2012/2112 00000KT P6SM BKN150
     FM202100 VRB03KT P6SM VCSH OVC040=



000
FTUS45 KMSO 201120
TAFGPI
TAF
KGPI 201120Z 2012/2112 00000KT 6SM BR BKN009 OVC100
     FM201900 00000KT P6SM VCSH BKN020=



000
FTUS45 KMSO 200520
TAFGPI
TAF
KGPI 200520Z 2006/2106 00000KT 6SM BR BKN009 OVC100
     FM201900 00000KT P6SM BKN020=



000
FTUS45 KMSO 200520
TAFSMN
TAF
KSMN 200520Z 2006/2106 VRB03KT P6SM BKN120
     FM201600 VRB03KT P6SM BKN050
      AMD LTD TO CLD VIS AND WIND=



000
FTUS45 KMSO 200520
TAFMSO
TAF
KMSO 200520Z 2006/2106 00000KT P6SM BKN080
     FM201600 VRB03KT P6SM OVC040=



000
FTUS45 KMSO 200520
TAFBTM
TAF
KBTM 200520Z 2006/2106 VRB05KT P6SM SCT070
     FM201800 28006KT P6SM BKN040=



000
FTUS45 KMSO 200345 AAA
TAFGPI
TAF AMD
KGPI 200345Z 2004/2024 00000KT 5SM BR OVC010
     FM201900 00000KT P6SM BKN020=



000
FTUS45 KMSO 200345 AAA
TAFGPI
TAF AMD
KGPI 200345Z 2004/2024 00000KT 5SM BR OVC010
     FM201900 00000KT P6SM BKN020=



000
FTUS45 KMSO 192340
TAFGPI
TAF
KGPI 192340Z 2000/2024 VRB03KT P6SM SKC
     FM200600 00000KT 6SM HZ VCFG SKC
     FM200800 00000KT 4SM BR BKN010
     FM201300 00000KT 2SM BR BKN005 OVC070
     FM201800 20004KT P6SM SCT010 BKN050=



000
FTUS45 KMSO 192340
TAFSMN
TAF
KSMN 192340Z 2000/2024 VRB03KT P6SM BKN120
     FM201500 VRB03KT P6SM BKN050
      AMD LTD TO CLD VIS AND WIND=



000
FTUS45 KMSO 192340
TAFBTM
TAF
KBTM 192340Z 2000/2024 VRB05KT P6SM SCT070
     FM201700 28006KT P6SM BKN040=



000
FTUS45 KMSO 192340
TAFMSO
TAF
KMSO 192340Z 2000/2024 00000KT P6SM SCT080
     FM200500 00000KT 6SM HZ BKN080
     FM201700 VRB03KT P6SM OVC030=



000
FTUS45 KMSO 191721
TAFBTM
TAF
KBTM 191721Z 1918/2018 VRB05KT P6SM SKC=



000
FTUS45 KMSO 191721
TAFSMN
TAF
KSMN 191721Z 1918/2018 VRB03KT P6SM BKN110
      AMD LTD TO CLD VIS AND WIND=



000
FTUS45 KMSO 191721
TAFMSO
TAF
KMSO 191721Z 1918/2018 00000KT 6SM BR SCT120=



000
FTUS45 KMSO 191721
TAFGPI
TAF
KGPI 191721Z 1918/2018 00000KT P6SM SCT120
     FM201200 00000KT 6SM BR BKN120=



000
FTUS45 KMSO 191401 AAB
TAFMSO
TAF AMD
KMSO 191401Z 1914/2012 00000KT P6SM VCFG SKC
     FM191800 VRB03KT P6SM BKN150=



000
FTUS45 KMSO 191247 AAA
TAFMSO
TAF AMD
KMSO 191247Z 1913/2012 00000KT 2SM BR SKC
      TEMPO 1913/1915 1SM BR SKC
     FM191600 00000KT 5SM BR SKC
     FM191800 VRB03KT P6SM BKN150=



000
FTUS45 KMSO 191137
TAFBTM
TAF
KBTM 191137Z 1912/2012 VRB05KT P6SM BKN120=



000
FTUS45 KMSO 191137
TAFSMN
TAF
KSMN 191137Z 1912/2012 VRB03KT P6SM BKN110
      AMD LTD TO CLD VIS AND WIND=



000
FTUS45 KMSO 191137
TAFMSO
TAF
KMSO 191137Z 1912/2012 00000KT 6SM BR SKC
     FM191700 VRB03KT P6SM BKN150=



000
FTUS45 KMSO 191137
TAFGPI
TAF
KGPI 191137Z 1912/2012 00000KT P6SM SKC
     FM191300 00000KT 6SM BR SCT003
     FM191700 VRB03KT P6SM BKN120=



    US Dept of Commerce
    National Oceanic and Atmospheric Administration
    National Weather Service
    1325 East West Highway
    Silver Spring, MD 20910
    Page Author: NWS Internet Services Team
Disclaimer
Information Quality
Credits
Glossary
Privacy Policy
Freedom of Information Act (FOIA)
About Us
Career Opportunities